Time;durP1;ratioP1;P1;durP2;ratioP2;P2;SDS_P1;SDS_P2;PMS_P1;PMS_P2;Temp;Humidity;BMP_temperature;BMP_pressure;BME280_temperature;BME280_humidity;BME280_pressure;Samples;Min_cycle;Max_cycle;Signal;HPM_P1;HPM_P2
2022/11/24 00:00:20;;;;;;;;;;;6.70;88.00;;;;;;5061858;28;20449;-76
2022/11/24 00:02:45;;;;;;;;;;;6.70;88.00;;;;;;5029617;28;19928;-77
2022/11/24 00:05:11;;;;;;;;;;;6.70;88.00;;;;;;5031249;28;19921;-77
2022/11/24 00:07:39;;;;;;;;;;;6.70;88.00;;;;;;5016766;28;20296;-76
2022/11/24 00:10:05;;;;;;;;;;;6.70;88.00;;;;;;5019396;28;19917;-78
2022/11/24 00:12:31;;;;;;;;;;;6.70;88.00;;;;;;5011973;28;19932;-77
2022/11/24 00:14:56;;;;;;;;;;;6.70;88.00;;;;;;5017388;28;19953;-75
2022/11/24 00:17:22;;;;;;;;;;;6.70;88.00;;;;;;5006088;28;19926;-76
2022/11/24 00:19:48;;;;;;;;;;;6.70;88.00;;;;;;5012028;28;19921;-76
2022/11/24 00:22:13;;;;;;;;;;;6.70;88.00;;;;;;5007958;28;19932;-77
2022/11/24 00:24:38;;;;;;;;;;;6.70;88.00;;;;;;4993721;28;19922;-77
2022/11/24 00:27:04;;;;;;;;;;;6.70;88.00;;;;;;5005802;28;20457;-76
2022/11/24 00:29:29;;;;;;;;;;;6.70;88.00;;;;;;5004123;28;19921;-77
2022/11/24 00:31:55;;;;;;;;;;;6.70;88.00;;;;;;5023895;28;19918;-76
2022/11/24 00:34:20;;;;;;;;;;;6.70;88.00;;;;;;5001547;28;19968;-76
2022/11/24 00:36:46;;;;;;;;;;;6.70;88.00;;;;;;5026266;28;19918;-76
2022/11/24 00:39:12;;;;;;;;;;;6.70;88.00;;;;;;5007801;28;19944;-76
2022/11/24 00:41:37;;;;;;;;;;;6.70;88.00;;;;;;5008345;28;19918;-76
2022/11/24 00:44:03;;;;;;;;;;;6.70;88.00;;;;;;5005831;28;20621;-76
2022/11/24 00:46:28;;;;;;;;;;;6.70;88.00;;;;;;5004940;28;19965;-78
2022/11/24 00:48:54;;;;;;;;;;;6.70;88.00;;;;;;5002949;28;19917;-77
2022/11/24 00:51:20;;;;;;;;;;;6.60;88.00;;;;;;5006583;28;19960;-77
2022/11/24 00:53:46;;;;;;;;;;;6.60;88.00;;;;;;4988188;28;19918;-76
2022/11/24 00:56:11;;;;;;;;;;;6.60;88.00;;;;;;5000480;28;19964;-77
2022/11/24 00:58:37;;;;;;;;;;;6.60;88.00;;;;;;5036906;28;19960;-77
2022/11/24 01:01:03;;;;;;;;;;;6.60;88.10;;;;;;5000005;28;19926;-77
2022/11/24 01:03:29;;;;;;;;;;;6.50;88.00;;;;;;4989552;28;20044;-77
2022/11/24 01:05:54;;;;;;;;;;;6.50;88.10;;;;;;5001918;28;19949;-76
2022/11/24 01:08:19;;;;;;;;;;;6.60;88.30;;;;;;5007607;28;20256;-76
2022/11/24 01:10:45;;;;;;;;;;;6.50;88.20;;;;;;5003200;28;19918;-76
2022/11/24 01:13:12;;;;;;;;;;;6.50;88.20;;;;;;5033414;28;19958;-77
2022/11/24 01:15:37;;;;;;;;;;;6.50;88.20;;;;;;5017782;28;19925;-77
2022/11/24 01:18:03;;;;;;;;;;;6.50;88.20;;;;;;5047209;28;19925;-77
2022/11/24 01:20:28;;;;;;;;;;;6.50;88.20;;;;;;5044917;28;19975;-77
2022/11/24 01:22:54;;;;;;;;;;;6.60;88.20;;;;;;5025745;28;19921;-76
2022/11/24 01:25:19;;;;;;;;;;;6.50;88.20;;;;;;5034291;28;19931;-77
2022/11/24 01:27:45;;;;;;;;;;;6.50;88.20;;;;;;5031344;28;20549;-76
2022/11/24 01:30:10;;;;;;;;;;;6.50;88.20;;;;;;5025118;28;19925;-76
2022/11/24 01:32:36;;;;;;;;;;;6.50;88.20;;;;;;5044898;28;19917;-76
2022/11/24 01:35:02;;;;;;;;;;;6.50;88.20;;;;;;5061543;28;19929;-76
2022/11/24 01:37:27;;;;;;;;;;;6.40;88.20;;;;;;5023931;28;20267;-76
2022/11/24 01:39:53;;;;;;;;;;;6.40;88.20;;;;;;5024986;28;20650;-77
2022/11/24 01:42:18;;;;;;;;;;;6.40;88.20;;;;;;5024744;28;19947;-76
2022/11/24 01:44:44;;;;;;;;;;;6.40;88.30;;;;;;5010752;28;19917;-76
2022/11/24 01:47:19;;;;;;;;;;;6.40;88.30;;;;;;5028236;28;20324;-76
2022/11/24 01:49:49;;;;;;;;;;;6.40;88.30;;;;;;5030358;28;19986;-76
2022/11/24 01:52:17;;;;;;;;;;;6.30;88.20;;;;;;5026896;28;20452;-76
2022/11/24 01:54:44;;;;;;;;;;;6.30;88.30;;;;;;5015305;28;19916;-75
2022/11/24 01:57:16;;;;;;;;;;;6.30;88.30;;;;;;5019026;28;19975;-77
2022/11/24 01:59:42;;;;;;;;;;;6.30;88.30;;;;;;5034787;28;19928;-76
2022/11/24 02:02:07;;;;;;;;;;;6.30;88.30;;;;;;5067217;28;20011;-76
2022/11/24 02:04:33;;;;;;;;;;;6.30;88.30;;;;;;5029217;28;19960;-77
2022/11/24 02:06:58;;;;;;;;;;;6.30;88.40;;;;;;5017871;28;19920;-77
2022/11/24 02:09:25;;;;;;;;;;;6.30;88.40;;;;;;5029628;28;19922;-76
2022/11/24 02:11:51;;;;;;;;;;;6.40;88.40;;;;;;5007673;28;20008;-76
2022/11/24 02:14:16;;;;;;;;;;;6.40;88.60;;;;;;5010395;28;19949;-76
2022/11/24 02:16:43;;;;;;;;;;;6.50;88.60;;;;;;5007175;28;20435;-77
2022/11/24 02:19:29;;;;;;;;;;;6.50;88.60;;;;;;4992402;28;19933;-76
2022/11/24 02:21:54;;;;;;;;;;;6.60;88.70;;;;;;4992590;28;19917;-76
2022/11/24 02:24:36;;;;;;;;;;;6.70;88.70;;;;;;4992953;28;19922;-77
2022/11/24 02:27:01;;;;;;;;;;;6.70;88.60;;;;;;4990956;28;20004;-77
2022/11/24 02:29:27;;;;;;;;;;;6.80;88.60;;;;;;4979221;28;20007;-76
2022/11/24 02:31:57;;;;;;;;;;;6.80;88.60;;;;;;4988141;28;19918;-77
2022/11/24 02:34:22;;;;;;;;;;;6.90;88.60;;;;;;4992727;28;19950;-76
2022/11/24 02:36:47;;;;;;;;;;;6.90;88.50;;;;;;4989708;28;19921;-76
2022/11/24 02:39:13;;;;;;;;;;;6.90;88.40;;;;;;4989913;28;19925;-77
2022/11/24 02:41:42;;;;;;;;;;;6.90;88.40;;;;;;4991676;28;19922;-76
2022/11/24 02:44:07;;;;;;;;;;;7.00;88.50;;;;;;4983102;28;19936;-76
2022/11/24 02:46:33;;;;;;;;;;;7.00;88.50;;;;;;4988370;28;19921;-76
2022/11/24 02:48:58;;;;;;;;;;;7.00;88.50;;;;;;4995768;28;20039;-77
2022/11/24 02:51:24;;;;;;;;;;;7.00;88.40;;;;;;4986499;28;19918;-76
2022/11/24 02:53:49;;;;;;;;;;;7.00;88.40;;;;;;4980107;28;19950;-75
2022/11/24 02:56:15;;;;;;;;;;;7.00;88.40;;;;;;4976973;28;19918;-76
2022/11/24 02:58:40;;;;;;;;;;;7.10;88.40;;;;;;4976893;28;19933;-77
2022/11/24 03:01:06;;;;;;;;;;;7.10;88.40;;;;;;4997174;28;19917;-77
2022/11/24 03:03:31;;;;;;;;;;;7.10;88.40;;;;;;4990440;28;19937;-77
2022/11/24 03:05:57;;;;;;;;;;;7.10;88.40;;;;;;4993699;28;19949;-77
2022/11/24 03:08:22;;;;;;;;;;;7.10;88.40;;;;;;4989895;28;19921;-77
2022/11/24 03:10:48;;;;;;;;;;;7.10;88.30;;;;;;4990623;28;19996;-76
2022/11/24 03:13:13;;;;;;;;;;;7.10;88.30;;;;;;5002034;28;19933;-77
2022/11/24 03:15:39;;;;;;;;;;;7.10;88.30;;;;;;5041127;28;19925;-77
2022/11/24 03:18:04;;;;;;;;;;;7.10;88.40;;;;;;5025539;28;20298;-75
2022/11/24 03:20:30;;;;;;;;;;;7.20;88.40;;;;;;5022737;28;19921;-75
2022/11/24 03:22:55;;;;;;;;;;;7.20;88.40;;;;;;5021781;28;19928;-76
2022/11/24 03:25:21;;;;;;;;;;;7.20;88.40;;;;;;5012987;28;20317;-75
2022/11/24 03:27:46;;;;;;;;;;;7.20;88.40;;;;;;5021361;28;19933;-76
2022/11/24 03:30:12;;;;;;;;;;;7.20;88.40;;;;;;5030198;28;20452;-77
2022/11/24 03:32:37;;;;;;;;;;;7.20;88.30;;;;;;5029527;28;19960;-76
2022/11/24 03:35:03;;;;;;;;;;;7.20;88.30;;;;;;5024268;28;19948;-76
2022/11/24 03:37:28;;;;;;;;;;;7.20;88.30;;;;;;5045694;28;19932;-76
2022/11/24 03:39:54;;;;;;;;;;;7.10;88.30;;;;;;5029053;28;19949;-77
2022/11/24 03:42:19;;;;;;;;;;;7.10;88.20;;;;;;5027583;28;19921;-76
2022/11/24 03:44:45;;;;;;;;;;;7.10;88.30;;;;;;5008607;28;20068;-75
2022/11/24 03:47:10;;;;;;;;;;;7.10;88.30;;;;;;5022273;28;19964;-75
2022/11/24 03:49:36;;;;;;;;;;;7.10;88.30;;;;;;5025886;28;19921;-77
2022/11/24 03:52:01;;;;;;;;;;;7.10;88.30;;;;;;5023816;28;19944;-75
2022/11/24 03:54:26;;;;;;;;;;;7.00;88.30;;;;;;5027047;28;19932;-76
2022/11/24 03:56:52;;;;;;;;;;;7.00;88.30;;;;;;5024606;28;19917;-77
2022/11/24 03:59:18;;;;;;;;;;;7.00;88.30;;;;;;5023308;28;19928;-77
2022/11/24 04:01:43;;;;;;;;;;;7.00;88.40;;;;;;5026086;28;19939;-77
2022/11/24 04:04:09;;;;;;;;;;;7.00;88.40;;;;;;5023095;28;19925;-76
2022/11/24 04:06:35;;;;;;;;;;;6.90;88.30;;;;;;5037939;28;19988;-75
2022/11/24 04:09:00;;;;;;;;;;;6.90;88.30;;;;;;5026309;28;19967;-77
2022/11/24 04:14:10;;;;;;;;;;;6.80;88.30;;;;;;5054010;28;19928;-76
2022/11/24 04:16:35;;;;;;;;;;;6.80;88.30;;;;;;5024883;28;19960;-77
2022/11/24 04:19:01;;;;;;;;;;;6.80;88.40;;;;;;5026043;28;19945;-77
2022/11/24 04:21:26;;;;;;;;;;;6.80;88.40;;;;;;5011622;28;19921;-77
2022/11/24 04:23:51;;;;;;;;;;;6.70;88.40;;;;;;5023626;28;20441;-77
2022/11/24 04:26:17;;;;;;;;;;;6.70;88.40;;;;;;5024350;28;19929;-77
2022/11/24 04:28:42;;;;;;;;;;;6.70;88.40;;;;;;5007934;28;19952;-78
2022/11/24 04:31:08;;;;;;;;;;;6.70;88.50;;;;;;5009321;28;20396;-77
2022/11/24 04:33:33;;;;;;;;;;;6.70;88.40;;;;;;5025264;28;20072;-78
2022/11/24 04:35:59;;;;;;;;;;;6.70;88.50;;;;;;5028562;28;20364;-77
2022/11/24 04:38:24;;;;;;;;;;;6.60;88.40;;;;;;5025400;28;20394;-78
2022/11/24 04:40:50;;;;;;;;;;;6.60;88.40;;;;;;5024207;28;19913;-77
2022/11/24 04:43:17;;;;;;;;;;;6.60;88.50;;;;;;5055622;28;19952;-76
2022/11/24 04:45:43;;;;;;;;;;;6.60;88.50;;;;;;5025490;28;19917;-76
2022/11/24 04:48:08;;;;;;;;;;;6.60;88.50;;;;;;5026699;28;19921;-76
2022/11/24 04:50:34;;;;;;;;;;;6.60;88.50;;;;;;5022685;28;20019;-76
2022/11/24 04:52:59;;;;;;;;;;;6.60;88.60;;;;;;5014910;28;19947;-77
2022/11/24 04:55:25;;;;;;;;;;;6.50;88.50;;;;;;5025239;28;19952;-78
2022/11/24 04:57:50;;;;;;;;;;;6.50;88.50;;;;;;5026625;28;19917;-78
2022/11/24 05:00:16;;;;;;;;;;;6.50;88.50;;;;;;5023767;28;20429;-77
2022/11/24 05:02:42;;;;;;;;;;;6.50;88.60;;;;;;5025790;28;19932;-77
2022/11/24 05:05:07;;;;;;;;;;;6.50;88.60;;;;;;5023888;28;19917;-78
2022/11/24 05:07:33;;;;;;;;;;;6.40;88.60;;;;;;5026674;28;19980;-77
2022/11/24 05:12:43;;;;;;;;;;;6.40;88.70;;;;;;5026304;28;19949;-76
2022/11/24 05:15:09;;;;;;;;;;;6.40;88.70;;;;;;5028093;28;20356;-77
2022/11/24 05:17:35;;;;;;;;;;;6.40;88.70;;;;;;5002024;28;19923;-77
2022/11/24 05:20:00;;;;;;;;;;;6.40;88.80;;;;;;5021017;28;19925;-77
2022/11/24 05:22:27;;;;;;;;;;;6.40;88.80;;;;;;5008077;28;19929;-76
2022/11/24 05:24:52;;;;;;;;;;;6.40;88.80;;;;;;4998610;28;19917;-77
2022/11/24 05:27:17;;;;;;;;;;;6.40;88.90;;;;;;5026986;28;20658;-76
2022/11/24 05:29:43;;;;;;;;;;;6.40;88.90;;;;;;5004553;28;19921;-75
2022/11/24 05:32:08;;;;;;;;;;;6.40;88.90;;;;;;5012477;28;20389;-74
2022/11/24 05:34:35;;;;;;;;;;;6.40;88.80;;;;;;5021079;28;19917;-76
2022/11/24 05:37:02;;;;;;;;;;;6.40;88.80;;;;;;5019845;28;20541;-74
2022/11/24 05:39:29;;;;;;;;;;;6.40;88.80;;;;;;5015260;28;19949;-75
2022/11/24 05:41:55;;;;;;;;;;;6.40;88.80;;;;;;5025526;28;19917;-77
2022/11/24 05:44:20;;;;;;;;;;;6.40;88.80;;;;;;5020512;28;20254;-77
2022/11/24 05:46:46;;;;;;;;;;;6.40;88.90;;;;;;5044135;28;20474;-76
2022/11/24 05:49:11;;;;;;;;;;;6.40;88.80;;;;;;5005752;28;19924;-77
2022/11/24 05:51:37;;;;;;;;;;;6.40;88.80;;;;;;5038092;28;19917;-76
2022/11/24 05:54:02;;;;;;;;;;;6.40;88.80;;;;;;5019087;28;19941;-75
2022/11/24 05:56:28;;;;;;;;;;;6.40;88.90;;;;;;5006803;28;20059;-76
2022/11/24 05:58:54;;;;;;;;;;;6.40;88.90;;;;;;5016518;28;19925;-76
2022/11/24 06:01:19;;;;;;;;;;;6.40;88.90;;;;;;5017103;28;20023;-78
2022/11/24 06:03:44;;;;;;;;;;;6.40;88.90;;;;;;5050599;28;19967;-75
2022/11/24 06:06:10;;;;;;;;;;;6.40;88.90;;;;;;5034336;28;20027;-76
2022/11/24 06:08:35;;;;;;;;;;;6.40;88.90;;;;;;5021506;28;19917;-75
2022/11/24 06:11:19;;;;;;;;;;;6.40;88.90;;;;;;5032853;28;19916;-75
2022/11/24 06:13:45;;;;;;;;;;;6.40;89.00;;;;;;5032474;28;20368;-75
2022/11/24 06:16:10;;;;;;;;;;;6.50;89.00;;;;;;5017237;28;19963;-76
2022/11/24 06:18:36;;;;;;;;;;;6.50;89.00;;;;;;5034444;28;20403;-75
2022/11/24 06:21:02;;;;;;;;;;;6.50;89.00;;;;;;5048809;28;19940;-74
2022/11/24 06:23:27;;;;;;;;;;;6.50;89.00;;;;;;5033246;28;19927;-75
2022/11/24 06:25:53;;;;;;;;;;;6.50;89.00;;;;;;5032063;28;20614;-76
2022/11/24 06:28:18;;;;;;;;;;;6.50;88.90;;;;;;5029013;28;19921;-74
2022/11/24 06:30:44;;;;;;;;;;;6.50;88.90;;;;;;5036013;28;20540;-76
2022/11/24 06:33:10;;;;;;;;;;;6.60;88.90;;;;;;5021200;28;19948;-75
2022/11/24 06:35:35;;;;;;;;;;;6.60;89.00;;;;;;5020717;28;20562;-75
2022/11/24 06:38:00;;;;;;;;;;;6.60;88.90;;;;;;5032921;28;19917;-75
2022/11/24 06:40:26;;;;;;;;;;;6.60;88.90;;;;;;5022707;28;19950;-76
2022/11/24 06:42:51;;;;;;;;;;;6.60;88.90;;;;;;5047980;28;19925;-75
2022/11/24 06:45:17;;;;;;;;;;;6.60;88.90;;;;;;5006513;28;20340;-74
2022/11/24 06:47:42;;;;;;;;;;;6.60;88.90;;;;;;5045220;28;19960;-75
2022/11/24 06:50:08;;;;;;;;;;;6.60;88.90;;;;;;5017392;28;19925;-75
2022/11/24 06:52:34;;;;;;;;;;;6.60;88.90;;;;;;5018917;28;19921;-75
2022/11/24 06:54:59;;;;;;;;;;;6.70;89.50;;;;;;5016897;28;19964;-75
2022/11/24 06:57:25;;;;;;;;;;;6.60;88.90;;;;;;5013776;28;19920;-76
2022/11/24 06:59:51;;;;;;;;;;;6.70;89.00;;;;;;5016629;28;19928;-75
2022/11/24 07:02:16;;;;;;;;;;;6.70;89.00;;;;;;5030557;28;19921;-75
2022/11/24 07:04:42;;;;;;;;;;;6.70;89.00;;;;;;5018957;28;20401;-75
2022/11/24 07:07:07;;;;;;;;;;;6.70;89.00;;;;;;5001663;28;19920;-75
2022/11/24 07:09:33;;;;;;;;;;;6.70;89.00;;;;;;5016664;28;19948;-75
2022/11/24 07:11:58;;;;;;;;;;;6.70;89.00;;;;;;5013134;28;19930;-75
2022/11/24 07:14:23;;;;;;;;;;;6.70;89.00;;;;;;5000431;28;20008;-76
2022/11/24 07:16:49;;;;;;;;;;;6.70;89.00;;;;;;5001373;28;19922;-75
2022/11/24 07:19:14;;;;;;;;;;;6.70;89.00;;;;;;4996576;28;19924;-75
2022/11/24 07:21:40;;;;;;;;;;;6.70;89.00;;;;;;5018761;28;19917;-74
2022/11/24 07:24:05;;;;;;;;;;;6.70;89.00;;;;;;5028902;28;19929;-77
2022/11/24 07:26:36;;;;;;;;;;;6.70;88.90;;;;;;5032829;28;20424;-74
2022/11/24 07:29:02;;;;;;;;;;;6.70;89.00;;;;;;4997520;28;19953;-75
2022/11/24 07:31:27;;;;;;;;;;;6.70;89.00;;;;;;5029384;28;20462;-75
2022/11/24 07:33:53;;;;;;;;;;;6.80;89.00;;;;;;5033031;28;20488;-75
2022/11/24 07:36:18;;;;;;;;;;;6.80;89.00;;;;;;5040316;28;19944;-75
2022/11/24 07:38:44;;;;;;;;;;;6.80;89.00;;;;;;5034541;28;19925;-75
2022/11/24 07:41:10;;;;;;;;;;;6.80;89.00;;;;;;5006617;28;19918;-75
2022/11/24 07:43:36;;;;;;;;;;;6.80;89.00;;;;;;4999757;28;19976;-76
2022/11/24 07:46:02;;;;;;;;;;;6.80;89.00;;;;;;5003720;28;19918;-75
2022/11/24 07:48:27;;;;;;;;;;;6.90;89.10;;;;;;5002371;28;20417;-75
2022/11/24 07:50:52;;;;;;;;;;;6.90;89.00;;;;;;5002290;28;20029;-75
2022/11/24 07:53:18;;;;;;;;;;;6.90;89.00;;;;;;5004007;28;19921;-75
2022/11/24 07:55:43;;;;;;;;;;;6.90;89.00;;;;;;5017327;28;19928;-76
2022/11/24 07:58:09;;;;;;;;;;;6.90;89.00;;;;;;4996354;28;19957;-70
2022/11/24 08:00:34;;;;;;;;;;;7.00;89.00;;;;;;4998532;28;20596;-75
2022/11/24 08:03:00;;;;;;;;;;;7.00;89.00;;;;;;5000393;28;20056;-75
2022/11/24 08:05:25;;;;;;;;;;;7.00;88.90;;;;;;5019745;28;19918;-75
2022/11/24 08:07:51;;;;;;;;;;;7.00;89.00;;;;;;4995375;28;19923;-75
2022/11/24 08:10:16;;;;;;;;;;;7.00;89.00;;;;;;5002731;28;19922;-75
2022/11/24 08:12:42;;;;;;;;;;;7.00;88.90;;;;;;5009557;28;19933;-75
2022/11/24 08:15:08;;;;;;;;;;;7.10;89.00;;;;;;5016621;28;20020;-76
2022/11/24 08:17:33;;;;;;;;;;;7.10;89.00;;;;;;5015949;28;19959;-76
2022/11/24 08:19:59;;;;;;;;;;;7.10;88.90;;;;;;5005874;28;19949;-74
2022/11/24 08:22:25;;;;;;;;;;;7.10;88.90;;;;;;5016859;28;19976;-75
2022/11/24 08:24:50;;;;;;;;;;;7.20;88.90;;;;;;5054949;28;19918;-75
2022/11/24 08:27:16;;;;;;;;;;;7.20;88.90;;;;;;5013891;28;19922;-75
2022/11/24 08:29:41;;;;;;;;;;;7.30;88.90;;;;;;5007832;28;19917;-75
2022/11/24 08:32:07;;;;;;;;;;;7.30;88.90;;;;;;5019167;28;20032;-76
2022/11/24 08:34:33;;;;;;;;;;;7.30;88.90;;;;;;5015788;28;20649;-76
2022/11/24 08:36:58;;;;;;;;;;;7.30;88.80;;;;;;4999388;28;19929;-75
2022/11/24 08:39:24;;;;;;;;;;;7.40;88.90;;;;;;5016454;28;19932;-76
2022/11/24 08:41:49;;;;;;;;;;;7.40;88.90;;;;;;5051017;28;19925;-75
2022/11/24 08:44:17;;;;;;;;;;;7.40;88.80;;;;;;5012106;28;19921;-76
2022/11/24 08:46:43;;;;;;;;;;;7.50;88.90;;;;;;5015827;28;19979;-74
2022/11/24 08:49:09;;;;;;;;;;;7.50;88.90;;;;;;5030282;28;20398;-75
2022/11/24 08:51:34;;;;;;;;;;;7.50;88.80;;;;;;5017402;28;19921;-75
2022/11/24 08:54:00;;;;;;;;;;;7.60;88.90;;;;;;5015084;28;19953;-77
2022/11/24 08:56:26;;;;;;;;;;;7.60;88.90;;;;;;5019422;28;19917;-74
2022/11/24 08:58:51;;;;;;;;;;;7.70;88.90;;;;;;5014295;28;20305;-75
2022/11/24 09:01:17;;;;;;;;;;;7.70;88.80;;;;;;5043747;28;19961;-75
2022/11/24 09:03:43;;;;;;;;;;;7.80;89.70;;;;;;5001012;28;19921;-75
2022/11/24 09:06:08;;;;;;;;;;;7.80;88.90;;;;;;5019837;28;19925;-75
2022/11/24 09:08:34;;;;;;;;;;;7.80;88.80;;;;;;5011726;28;20698;-75
2022/11/24 09:11:00;;;;;;;;;;;7.90;88.80;;;;;;5015868;28;19921;-75
2022/11/24 09:13:26;;;;;;;;;;;7.90;88.80;;;;;;5009788;28;19926;-75
2022/11/24 09:15:51;;;;;;;;;;;8.00;88.80;;;;;;5033499;28;19923;-75
2022/11/24 09:18:17;;;;;;;;;;;8.10;88.80;;;;;;5015750;28;19928;-75
2022/11/24 09:20:42;;;;;;;;;;;8.10;88.80;;;;;;5012841;28;19924;-74
2022/11/24 09:23:08;;;;;;;;;;;8.20;88.70;;;;;;5051857;28;19925;-75
2022/11/24 09:25:33;;;;;;;;;;;8.30;88.70;;;;;;5017113;28;19921;-75
2022/11/24 09:27:58;;;;;;;;;;;8.40;88.60;;;;;;5010414;28;20437;-76
2022/11/24 09:30:24;;;;;;;;;;;8.40;88.50;;;;;;5038985;28;19924;-76
2022/11/24 09:32:50;;;;;;;;;;;8.50;88.50;;;;;;5007831;28;20004;-75
2022/11/24 09:35:15;;;;;;;;;;;8.50;88.50;;;;;;5021604;28;19917;-74
2022/11/24 09:37:43;;;;;;;;;;;8.50;88.40;;;;;;5035772;28;19957;-75
2022/11/24 09:40:10;;;;;;;;;;;8.60;88.40;;;;;;5010522;28;19928;-75
2022/11/24 09:42:36;;;;;;;;;;;8.60;88.40;;;;;;5001589;28;20381;-75
2022/11/24 09:45:14;;;;;;;;;;;8.70;88.40;;;;;;5013550;28;19925;-75
2022/11/24 09:47:43;;;;;;;;;;;8.70;88.40;;;;;;5010035;28;19918;-75
2022/11/24 09:50:11;;;;;;;;;;;8.70;88.40;;;;;;5012404;28;19927;-74
2022/11/24 09:52:38;;;;;;;;;;;8.80;88.40;;;;;;5000671;28;20626;-75
2022/11/24 09:55:03;;;;;;;;;;;8.80;88.40;;;;;;5001314;28;19925;-75
2022/11/24 09:57:29;;;;;;;;;;;8.80;88.30;;;;;;5014946;28;19926;-76
2022/11/24 09:59:55;;;;;;;;;;;8.90;88.30;;;;;;5013445;28;19927;-75
2022/11/24 10:02:21;;;;;;;;;;;8.90;88.30;;;;;;5020161;28;19929;-75
2022/11/24 10:04:46;;;;;;;;;;;9.00;88.30;;;;;;5016023;28;19947;-76
2022/11/24 10:07:18;;;;;;;;;;;9.00;88.20;;;;;;5014272;28;19929;-76
2022/11/24 10:09:49;;;;;;;;;;;9.10;88.30;;;;;;5016568;28;19925;-75
2022/11/24 10:12:33;;;;;;;;;;;9.10;88.10;;;;;;5017132;28;19937;-75
2022/11/24 10:15:08;;;;;;;;;;;9.20;88.20;;;;;;5019002;28;19922;-75
2022/11/24 10:17:41;;;;;;;;;;;9.20;88.20;;;;;;5018659;28;19937;-75
2022/11/24 10:20:26;;;;;;;;;;;9.30;88.10;;;;;;5024385;28;19924;-75
2022/11/24 10:22:57;;;;;;;;;;;9.30;88.00;;;;;;5010201;28;19928;-75
2022/11/24 10:25:24;;;;;;;;;;;9.40;88.00;;;;;;5018386;28;19953;-75
2022/11/24 10:27:59;;;;;;;;;;;9.40;87.90;;;;;;5003131;28;19963;-75
2022/11/24 10:30:24;;;;;;;;;;;9.40;87.90;;;;;;5004801;28;20509;-75
2022/11/24 10:33:04;;;;;;;;;;;9.40;87.90;;;;;;5013529;28;20027;-75
2022/11/24 10:35:37;;;;;;;;;;;9.40;87.90;;;;;;5011150;28;19959;-76
2022/11/24 10:38:09;;;;;;;;;;;9.50;87.90;;;;;;5012591;28;19956;-74
2022/11/24 10:40:34;;;;;;;;;;;9.50;87.90;;;;;;5036682;28;19917;-76
2022/11/24 10:43:00;;;;;;;;;;;9.50;87.90;;;;;;5016846;28;19925;-76
2022/11/24 10:45:26;;;;;;;;;;;9.60;88.10;;;;;;5017442;28;19964;-75
2022/11/24 10:47:51;;;;;;;;;;;9.70;88.00;;;;;;5024090;28;19917;-75
2022/11/24 10:50:20;;;;;;;;;;;9.80;88.00;;;;;;5020060;28;19976;-76
2022/11/24 10:53:06;;;;;;;;;;;9.80;87.90;;;;;;5012896;28;19921;-77
2022/11/24 10:55:49;;;;;;;;;;;9.90;88.60;;;;;;5024738;28;20011;-74
2022/11/24 10:58:15;;;;;;;;;;;10.00;87.70;;;;;;5033395;28;19917;-76
2022/11/24 11:00:41;;;;;;;;;;;10.00;87.60;;;;;;5009984;28;20338;-76
2022/11/24 11:03:10;;;;;;;;;;;10.10;87.60;;;;;;5052218;28;19929;-75
2022/11/24 11:05:41;;;;;;;;;;;10.10;87.60;;;;;;5009718;28;19917;-75
2022/11/24 11:08:13;;;;;;;;;;;10.10;87.60;;;;;;5027834;28;19947;-75
2022/11/24 11:10:38;;;;;;;;;;;10.10;87.60;;;;;;5022205;28;20519;-75
2022/11/24 11:13:23;;;;;;;;;;;10.10;87.50;;;;;;5014015;28;19930;-75
2022/11/24 11:15:49;;;;;;;;;;;10.20;87.50;;;;;;4998328;28;19921;-76
2022/11/24 11:18:15;;;;;;;;;;;10.20;87.50;;;;;;5018032;28;19918;-75
2022/11/24 11:20:40;;;;;;;;;;;10.30;87.50;;;;;;5008130;28;19924;-74
2022/11/24 11:23:19;;;;;;;;;;;10.30;87.50;;;;;;5032483;28;19929;-75
2022/11/24 11:25:45;;;;;;;;;;;10.40;87.60;;;;;;5024658;28;19932;-76
2022/11/24 11:28:26;;;;;;;;;;;10.50;87.50;;;;;;5024965;28;19917;-75
2022/11/24 11:30:58;;;;;;;;;;;10.50;87.40;;;;;;5021793;28;19921;-75
2022/11/24 11:33:24;;;;;;;;;;;10.60;87.40;;;;;;5035327;28;19978;-75
2022/11/24 11:35:50;;;;;;;;;;;10.60;87.30;;;;;;5055279;28;19932;-75
2022/11/24 11:38:15;;;;;;;;;;;10.70;87.30;;;;;;5006897;28;19921;-76
2022/11/24 11:40:42;;;;;;;;;;;10.70;87.30;;;;;;5025733;28;20331;-75
2022/11/24 11:43:34;;;;;;;;;;;10.70;87.20;;;;;;5035441;28;19917;-74
2022/11/24 11:46:01;;;;;;;;;;;10.80;87.20;;;;;;5039735;28;19916;-75
2022/11/24 11:48:31;;;;;;;;;;;10.80;87.10;;;;;;5012072;28;19924;-75
2022/11/24 11:51:15;;;;;;;;;;;10.80;87.00;;;;;;5023695;28;19942;-75
2022/11/24 11:53:45;;;;;;;;;;;10.80;87.00;;;;;;5039870;28;19920;-76
2022/11/24 11:56:22;;;;;;;;;;;10.90;87.00;;;;;;5011555;28;20006;-75
2022/11/24 11:58:54;;;;;;;;;;;10.90;87.00;;;;;;5017594;28;19917;-75
2022/11/24 12:01:19;;;;;;;;;;;10.90;87.00;;;;;;5042040;28;19955;-74
2022/11/24 12:04:03;;;;;;;;;;;10.90;87.00;;;;;;5046031;28;20665;-75
2022/11/24 12:06:28;;;;;;;;;;;10.90;87.00;;;;;;5045619;28;19958;-74
2022/11/24 12:08:54;;;;;;;;;;;10.90;86.90;;;;;;5047743;28;19917;-74
2022/11/24 12:11:22;;;;;;;;;;;11.00;87.00;;;;;;5032561;28;19924;-75
2022/11/24 12:14:06;;;;;;;;;;;11.00;86.90;;;;;;5029754;28;19928;-75
2022/11/24 12:16:50;;;;;;;;;;;10.90;86.80;;;;;;5047792;28;19970;-75
2022/11/24 12:19:18;;;;;;;;;;;10.90;86.80;;;;;;5043258;28;20011;-75
2022/11/24 12:22:03;;;;;;;;;;;10.90;86.80;;;;;;5045239;28;19951;-74
2022/11/24 12:24:28;;;;;;;;;;;10.90;86.90;;;;;;5041973;28;19928;-75
2022/11/24 12:26:54;;;;;;;;;;;10.90;86.80;;;;;;5045543;28;20012;-75
2022/11/24 12:29:41;;;;;;;;;;;10.90;86.80;;;;;;5014470;28;19917;-75
2022/11/24 12:32:10;;;;;;;;;;;10.80;86.70;;;;;;5024206;28;19916;-75
2022/11/24 12:34:42;;;;;;;;;;;10.80;86.80;;;;;;5020781;28;19928;-75
2022/11/24 12:37:07;;;;;;;;;;;10.80;86.80;;;;;;5039389;28;20011;-75
2022/11/24 12:39:34;;;;;;;;;;;10.90;87.60;;;;;;5041819;28;20039;-75
2022/11/24 12:41:59;;;;;;;;;;;10.90;86.80;;;;;;5028004;28;19925;-75
2022/11/24 12:45:04;;;;;;;;;;;10.90;86.80;;;;;;5038264;28;19989;-75
2022/11/24 12:47:52;;;;;;;;;;;10.90;86.70;;;;;;4959827;28;19933;-76
2022/11/24 12:50:18;;;;;;;;;;;10.90;86.70;;;;;;4938971;28;20251;-75
2022/11/24 12:52:49;;;;;;;;;;;10.90;86.80;;;;;;4939785;28;19961;-74
2022/11/24 12:55:18;;;;;;;;;;;10.80;86.70;;;;;;4950269;28;19950;-76
2022/11/24 12:58:02;;;;;;;;;;;10.80;86.70;;;;;;4952645;28;20106;-74
2022/11/24 13:00:35;;;;;;;;;;;10.80;86.70;;;;;;4958503;28;20013;-75
2022/11/24 13:03:19;;;;;;;;;;;10.80;86.70;;;;;;4939128;28;19964;-74
2022/11/24 13:05:47;;;;;;;;;;;10.80;86.70;;;;;;4923800;28;19972;-75
2022/11/24 13:08:13;;;;;;;;;;;10.80;86.70;;;;;;4938983;28;19931;-75
2022/11/24 13:10:39;;;;;;;;;;;10.80;86.70;;;;;;4927850;28;19946;-76
2022/11/24 13:13:05;;;;;;;;;;;10.80;86.70;;;;;;4929433;28;19934;-75
2022/11/24 13:15:31;;;;;;;;;;;10.80;86.70;;;;;;4952052;28;20374;-75
2022/11/24 13:17:57;;;;;;;;;;;10.80;86.70;;;;;;4955175;28;19917;-74
2022/11/24 13:20:23;;;;;;;;;;;10.80;86.70;;;;;;5036012;28;19925;-75
2022/11/24 13:22:51;;;;;;;;;;;10.80;86.70;;;;;;5011632;28;20408;-75
2022/11/24 13:25:18;;;;;;;;;;;10.80;86.70;;;;;;5003385;28;19927;-75
2022/11/24 13:27:47;;;;;;;;;;;10.80;86.70;;;;;;5010086;28;19967;-77
2022/11/24 13:30:31;;;;;;;;;;;10.80;86.70;;;;;;4999411;28;19994;-75
2022/11/24 13:32:58;;;;;;;;;;;10.70;86.70;;;;;;5030062;28;19921;-75
2022/11/24 13:35:24;;;;;;;;;;;10.70;86.70;;;;;;5006475;28;19922;-75
2022/11/24 13:37:50;;;;;;;;;;;10.70;86.70;;;;;;4988572;28;19929;-76
2022/11/24 13:40:17;;;;;;;;;;;10.70;86.70;;;;;;5028149;28;20297;-76
2022/11/24 13:43:00;;;;;;;;;;;10.70;86.70;;;;;;5006932;28;19921;-75
2022/11/24 13:45:37;;;;;;;;;;;10.70;86.60;;;;;;5038337;28;19932;-75
2022/11/24 13:48:18;;;;;;;;;;;10.70;86.70;;;;;;5020269;28;19918;-75
2022/11/24 13:50:49;;;;;;;;;;;10.70;86.70;;;;;;5021063;28;20008;-75
2022/11/24 13:53:25;;;;;;;;;;;10.70;86.80;;;;;;5002752;28;19923;-75
2022/11/24 13:55:57;;;;;;;;;;;10.70;87.60;;;;;;5023971;28;19992;-75
2022/11/24 13:58:23;;;;;;;;;;;10.80;86.80;;;;;;5023757;28;19972;-75
2022/11/24 14:01:08;;;;;;;;;;;10.80;86.80;;;;;;5021508;28;19925;-75
2022/11/24 14:03:41;;;;;;;;;;;10.80;86.70;;;;;;5039883;28;20436;-74
2022/11/24 14:06:12;;;;;;;;;;;10.80;86.70;;;;;;5023579;28;19921;-75
2022/11/24 14:08:37;;;;;;;;;;;10.80;86.70;;;;;;5008979;28;19956;-75
2022/11/24 14:11:09;;;;;;;;;;;10.80;86.70;;;;;;5002603;28;20423;-75
2022/11/24 14:13:35;;;;;;;;;;;10.80;86.70;;;;;;5012227;28;19925;-74
2022/11/24 14:16:01;;;;;;;;;;;10.80;86.70;;;;;;5054430;28;19944;-76
2022/11/24 14:18:30;;;;;;;;;;;10.80;86.70;;;;;;5041884;28;19923;-75
2022/11/24 14:20:56;;;;;;;;;;;10.80;86.70;;;;;;5008897;28;19921;-76
2022/11/24 14:23:21;;;;;;;;;;;10.80;86.70;;;;;;5015408;28;19936;-74
2022/11/24 14:25:48;;;;;;;;;;;10.80;86.60;;;;;;5021539;28;19917;-75
2022/11/24 14:28:26;;;;;;;;;;;10.70;86.60;;;;;;5012712;28;19974;-77
2022/11/24 14:31:04;;;;;;;;;;;10.70;86.60;;;;;;5019015;28;20317;-75
2022/11/24 14:33:30;;;;;;;;;;;10.60;86.50;;;;;;5024074;28;19925;-76